Time;durP1;ratioP1;P1;durP2;ratioP2;P2;SDS_P1;SDS_P2;PMS_P1;PMS_P2;Temp;Humidity;BMP_temperature;BMP_pressure;BME280_temperature;BME280_humidity;BME280_pressure;Samples;Min_cycle;Max_cycle;Signal;HPM_P1;HPM_P2
2023/01/13 00:01:55;;;;;;;19.10;10.52;;;;;;;2.32;100.00;99339.28;5103311;28;20043;-92
2023/01/13 00:04:20;;;;;;;17.92;10.55;;;;;;;2.35;100.00;99344.56;5134875;27;20085;-92
2023/01/13 00:06:46;;;;;;;16.23;9.45;;;;;;;2.43;100.00;99352.56;5102516;28;20043;-91
2023/01/13 00:09:14;;;;;;;16.73;10.18;;;;;;;2.51;100.00;99363.16;5101061;27;20051;-93
2023/01/13 00:11:39;;;;;;;18.13;9.20;;;;;;;2.59;100.00;99362.44;5102642;28;20089;-94
2023/01/13 00:14:05;;;;;;;19.15;10.23;;;;;;;2.74;100.00;99358.25;5103765;27;20028;-91
2023/01/13 00:16:31;;;;;;;25.00;14.05;;;;;;;2.82;100.00;99354.88;5099289;28;20516;-93
2023/01/13 00:18:57;;;;;;;21.67;12.88;;;;;;;2.90;100.00;99361.97;5103516;27;20046;-93
2023/01/13 00:21:23;;;;;;;27.70;14.88;;;;;;;2.92;100.00;99352.34;5105692;28;20047;-93
2023/01/13 00:23:53;;;;;;;26.00;13.88;;;;;;;3.04;100.00;99358.66;5102025;27;20488;-93
2023/01/13 00:26:21;;;;;;;26.85;17.83;;;;;;;2.94;100.00;99317.38;5105827;27;20096;-92
2023/01/13 00:28:47;;;;;;;24.80;15.15;;;;;;;3.18;100.00;99329.91;5099928;27;20043;-94
2023/01/13 00:31:15;;;;;;;23.65;13.65;;;;;;;3.22;100.00;99318.56;5103217;27;20065;-94
2023/01/13 00:33:41;;;;;;;23.77;14.68;;;;;;;3.28;100.00;99325.66;5112417;27;20039;-93
2023/01/13 00:36:11;;;;;;;23.45;14.45;;;;;;;3.29;100.00;99312.50;5096465;27;20031;-93
2023/01/13 00:38:37;;;;;;;28.60;16.60;;;;;;;3.40;100.00;99325.75;5106568;27;20044;-92
2023/01/13 00:41:05;;;;;;;32.40;18.20;;;;;;;3.37;100.00;99336.25;5101735;27;20088;-91
2023/01/13 00:43:34;;;;;;;29.05;16.88;;;;;;;3.21;100.00;99318.53;5098887;28;20092;-93
2023/01/13 00:46:00;;;;;;;24.75;15.15;;;;;;;3.18;100.00;99329.03;5098498;27;20130;-93
2023/01/13 00:48:27;;;;;;;25.00;15.68;;;;;;;3.02;100.00;99333.22;5103333;28;20065;-92
2023/01/13 00:50:57;;;;;;;28.73;15.27;;;;;;;3.01;100.00;99337.59;5108177;28;20067;-94
2023/01/13 00:53:24;;;;;;;24.45;14.82;;;;;;;3.02;100.00;99323.59;5103664;27;21069;-93
2023/01/13 00:55:58;;;;;;;26.63;15.63;;;;;;;3.02;100.00;99312.22;5105619;27;20046;-93
2023/01/13 00:58:32;;;;;;;23.10;13.13;;;;;;;3.00;100.00;99296.41;5102048;27;20135;-93
2023/01/13 01:01:28;;;;;;;20.80;12.10;;;;;;;3.18;100.00;99298.38;5101955;27;20055;-92
2023/01/13 01:03:54;;;;;;;20.42;12.48;;;;;;;3.21;100.00;99297.50;5109339;27;20043;-93
2023/01/13 01:06:22;;;;;;;18.95;12.05;;;;;;;3.17;100.00;99303.63;5103940;28;20056;-93
2023/01/13 01:08:49;;;;;;;19.83;11.73;;;;;;;3.21;100.00;99310.66;5137296;27;20084;-93
2023/01/13 01:11:17;;;;;;;16.40;10.70;;;;;;;3.38;100.00;99338.00;5136138;27;20484;-92
2023/01/13 01:13:44;;;;;;;18.40;10.30;;;;;;;3.78;100.00;99346.31;5102349;28;20395;-94
2023/01/13 01:16:13;;;;;;;15.30;9.15;;;;;;;3.64;100.00;99303.22;5106014;27;20039;-92
2023/01/13 01:18:40;;;;;;;;;;;;;;;3.80;100.00;99341.97;5109143;27;20035;-93
2023/01/13 01:21:07;;;;;;;16.88;9.20;;;;;;;3.56;100.00;99311.03;5107426;27;19969;-92
2023/01/13 01:23:33;;;;;;;14.70;8.70;;;;;;;3.66;100.00;99327.78;5100712;28;20044;-94
2023/01/13 01:26:00;;;;;;;17.27;9.68;;;;;;;3.73;100.00;99350.66;5136255;27;20063;-93
2023/01/13 01:28:26;;;;;;;19.17;10.05;;;;;;;3.56;100.00;99321.56;5107224;27;20039;-92
2023/01/13 01:30:54;;;;;;;16.33;8.95;;;;;;;3.68;100.00;99353.22;5100678;28;20918;-93
2023/01/13 01:33:21;;;;;;;17.67;10.68;;;;;;;3.72;100.00;99355.91;5099491;27;20051;-92
2023/01/13 01:35:47;;;;;;;24.88;13.20;;;;;;;3.64;100.00;99337.41;5099013;28;20496;-92
2023/01/13 01:38:13;;;;;;;24.95;13.88;;;;;;;3.73;100.00;99360.28;5101563;28;20035;-93
2023/01/13 01:40:38;;;;;;;24.35;13.73;;;;;;;3.52;100.00;99338.19;5097588;28;20048;-93
2023/01/13 01:46:13;;;;;;;22.42;13.02;;;;;;;3.39;100.00;99325.78;5152198;27;20356;-92
2023/01/13 01:48:41;;;;;;;21.85;13.02;;;;;;;3.14;100.00;99293.94;5134628;27;20102;-92
2023/01/13 01:51:11;;;;;;;19.15;13.13;;;;;;;3.16;100.00;99307.97;5134775;27;20039;-94
2023/01/13 01:53:38;;;;;;;21.73;13.07;;;;;;;3.00;100.00;99287.66;5134839;27;20466;-93
2023/01/13 01:56:06;;;;;;;24.50;13.98;;;;;;;3.00;100.00;99299.06;5134437;27;20054;-93
2023/01/13 01:58:41;;;;;;;24.23;13.85;;;;;;;2.81;100.00;99289.19;5134563;27;20399;-93
2023/01/13 02:01:07;;;;;;;20.52;12.65;;;;;;;2.78;100.00;99287.41;5132141;27;20031;-93
2023/01/13 02:03:38;;;;;;;22.60;13.13;;;;;;;2.71;100.00;99284.66;5135128;27;20039;-92
2023/01/13 02:06:05;;;;;;;22.85;14.27;;;;;;;2.72;100.00;99299.59;5134640;27;20088;-94
2023/01/13 02:08:32;;;;;;;23.98;14.48;;;;;;;2.68;100.00;99306.53;5134747;27;20088;-93
2023/01/13 02:10:58;;;;;;;24.33;13.35;;;;;;;2.46;100.00;99292.22;5134811;27;20038;-93
2023/01/13 02:13:24;;;;;;;25.85;14.18;;;;;;;2.24;100.00;99280.56;5133768;27;20068;-93
2023/01/13 02:15:56;;;;;;;21.13;12.85;;;;;;;2.23;100.00;99299.75;5133320;27;20035;-93
2023/01/13 02:18:35;;;;;;;20.05;12.70;;;;;;;2.31;100.00;99326.13;5134457;27;20399;-93
2023/01/13 02:21:34;;;;;;;19.70;12.52;;;;;;;2.15;100.00;99315.41;5134536;27;20038;-93
2023/01/13 02:27:58;;;;;;;22.50;12.07;;;;;;;2.08;100.00;99305.66;5153040;27;20885;-93
2023/01/13 02:34:00;;;;;;;18.15;11.65;;;;;;;1.91;100.00;99280.91;5112134;27;20364;-93
2023/01/13 02:36:34;;;;;;;16.65;10.75;;;;;;;1.96;100.00;99301.13;5110605;28;20044;-92
2023/01/13 02:39:06;;;;;;;22.42;12.05;;;;;;;1.87;100.00;99280.00;5109996;28;20039;-93
2023/01/13 02:44:52;;;;;;;20.52;11.90;;;;;;;2.01;100.00;99288.06;5140043;27;20370;-92
2023/01/13 02:47:21;;;;;;;20.65;13.35;;;;;;;1.95;100.00;99261.75;5096216;28;20141;-92
2023/01/13 02:49:51;;;;;;;25.20;15.07;;;;;;;2.00;100.00;99279.31;5098962;28;20047;-93
2023/01/13 02:52:23;;;;;;;24.63;15.32;;;;;;;2.15;100.00;99311.91;5095019;28;20552;-93
2023/01/13 02:54:55;;;;;;;22.88;15.65;;;;;;;2.18;100.00;99296.22;5096566;28;20064;-93
2023/01/13 02:57:22;;;;;;;30.60;15.45;;;;;;;2.33;100.00;99290.31;5093822;28;20051;-92
2023/01/13 02:59:53;;;;;;;25.17;15.15;;;;;;;2.41;100.00;99283.44;5095957;28;20036;-92
2023/01/13 03:02:21;;;;;;;26.30;15.68;;;;;;;2.54;100.00;99294.94;5096401;28;20042;-93
2023/01/13 03:04:53;;;;;;;25.27;15.05;;;;;;;2.54;100.00;99289.69;5096403;28;20093;-92
2023/01/13 03:07:56;;;;;;;22.45;14.55;;;;;;;2.64;100.00;99279.34;5095764;28;20425;-93
2023/01/13 03:10:33;;;;;;;23.88;13.80;;;;;;;2.73;100.00;99267.19;5043070;28;20040;-93
2023/01/13 03:13:08;;;;;;;24.33;14.57;;;;;;;2.79;100.00;99273.41;5038321;28;20045;-93
2023/01/13 03:15:47;;;;;;;26.35;15.50;;;;;;;2.69;100.00;99247.91;5044140;28;20049;-93
2023/01/13 03:18:24;;;;;;;23.45;14.50;;;;;;;2.79;100.00;99260.28;5033674;28;20053;-93
2023/01/13 03:21:03;;;;;;;24.95;14.15;;;;;;;2.81;100.00;99261.16;5036961;28;20037;-93
2023/01/13 03:23:34;;;;;;;25.38;14.38;;;;;;;2.87;100.00;99278.75;5027827;28;20131;-92
2023/01/13 03:26:07;;;;;;;23.17;14.85;;;;;;;2.90;100.00;99277.91;5030492;28;20041;-92
2023/01/13 03:28:40;;;;;;;37.22;17.40;;;;;;;2.97;100.00;99291.16;5041120;28;20088;-92
2023/01/13 03:31:10;;;;;;;29.42;15.45;;;;;;;2.89;100.00;99263.91;5036983;28;20041;-93
2023/01/13 03:33:44;;;;;;;24.77;12.77;;;;;;;2.90;100.00;99254.25;5033786;28;20042;-93
2023/01/13 03:36:12;;;;;;;23.40;12.77;;;;;;;2.78;100.00;99255.03;5036565;28;20532;-94
2023/01/13 03:38:41;;;;;;;18.83;12.23;;;;;;;2.57;100.00;99261.75;5040757;28;20056;-92
2023/01/13 03:41:13;;;;;;;19.60;12.82;;;;;;;2.66;100.00;99276.75;5033288;28;20041;-92
2023/01/13 03:46:49;;;;;;;20.27;12.07;;;;;;;2.66;100.00;99230.34;5104156;27;20745;-93
2023/01/13 03:49:18;;;;;;;20.65;12.25;;;;;;;2.73;100.00;99230.44;5070440;28;20453;-94
2023/01/13 03:51:47;;;;;;;;;;;;;;;2.82;100.00;99256.78;5070785;28;20033;-92
2023/01/13 03:54:16;;;;;;;19.55;11.60;;;;;;;2.66;100.00;99213.72;5069842;28;19921;-93
2023/01/13 03:56:46;;;;;;;21.55;13.35;;;;;;;2.77;100.00;99259.38;5070487;28;20387;-92
2023/01/13 03:59:18;;;;;;;23.70;14.80;;;;;;;2.68;100.00;99233.88;5070354;28;20614;-93
2023/01/13 04:01:50;;;;;;;22.08;13.35;;;;;;;2.77;100.00;99242.72;5069859;28;20041;-92
2023/01/13 04:04:21;;;;;;;22.63;13.20;;;;;;;2.89;100.00;99261.28;5069936;28;20037;-93
2023/01/13 04:06:53;;;;;;;19.50;11.45;;;;;;;2.88;100.00;99241.09;5069944;28;20036;-93
2023/01/13 04:09:23;;;;;;;16.92;11.15;;;;;;;2.92;100.00;99249.91;5068221;28;20047;-92
2023/01/13 04:11:55;;;;;;;19.50;11.35;;;;;;;2.93;100.00;99238.53;5069651;28;20044;-92
2023/01/13 04:14:23;;;;;;;22.98;13.57;;;;;;;3.07;100.00;99245.69;5069667;28;20040;-91
2023/01/13 04:16:51;;;;;;;22.30;14.23;;;;;;;3.14;100.00;99248.41;5069804;28;20037;-93
2023/01/13 04:19:17;;;;;;;22.38;12.98;;;;;;;3.15;100.00;99237.91;5070098;28;20094;-92
2023/01/13 04:21:43;;;;;;;24.70;13.23;;;;;;;3.30;100.00;99255.59;5070091;28;20040;-93
2023/01/13 04:24:09;;;;;;;21.40;12.38;;;;;;;3.30;100.00;99229.28;5069832;28;20041;-93
2023/01/13 04:26:35;;;;;;;20.25;12.15;;;;;;;3.36;100.00;99238.97;5069776;28;20056;-91
2023/01/13 04:29:00;;;;;;;19.17;11.82;;;;;;;3.46;100.00;99260.09;5069572;28;20087;-92
2023/01/13 04:31:27;;;;;;;22.70;11.77;;;;;;;3.45;100.00;99252.22;5069092;28;20049;-93
2023/01/13 04:33:54;;;;;;;21.17;12.98;;;;;;;3.24;100.00;99223.97;5069460;28;20048;-92
2023/01/13 04:36:24;;;;;;;19.98;11.70;;;;;;;3.22;100.00;99229.22;5068297;28;20094;-93
2023/01/13 04:38:50;;;;;;;18.90;12.15;;;;;;;3.36;100.00;99244.22;5069365;28;20037;-93
2023/01/13 04:41:16;;;;;;;18.50;12.48;;;;;;;3.36;100.00;99250.38;5068809;28;20033;-92
2023/01/13 04:43:42;;;;;;;18.60;12.15;;;;;;;3.31;100.00;99254.69;5069585;28;20131;-93
2023/01/13 04:46:07;;;;;;;18.58;12.20;;;;;;;3.12;100.00;99210.72;5068657;28;20053;-93
2023/01/13 04:48:33;;;;;;;20.85;12.48;;;;;;;3.20;100.00;99211.66;5069371;28;20040;-93
2023/01/13 04:51:00;;;;;;;19.67;11.82;;;;;;;3.38;100.00;99209.19;5068911;28;20037;-93
2023/01/13 04:53:26;;;;;;;21.15;12.77;;;;;;;3.43;100.00;99225.03;5067544;28;20558;-93
2023/01/13 04:55:52;;;;;;;19.60;12.50;;;;;;;3.36;100.00;99234.63;5067521;28;20056;-92
2023/01/13 04:58:18;;;;;;;17.95;12.40;;;;;;;3.44;100.00;99246.06;5053416;28;20135;-93
2023/01/13 05:00:44;;;;;;;19.83;12.70;;;;;;;3.32;100.00;99218.78;5051724;28;20091;-93
2023/01/13 05:03:09;;;;;;;19.40;12.88;;;;;;;3.40;100.00;99225.88;5055204;28;20041;-92
2023/01/13 05:05:36;;;;;;;20.08;12.68;;;;;;;3.38;100.00;99210.94;5055646;28;20040;-93
2023/01/13 05:08:04;;;;;;;18.58;12.55;;;;;;;3.25;100.00;99181.94;5055833;28;20057;-92
2023/01/13 05:10:30;;;;;;;19.48;13.25;;;;;;;3.34;100.00;99214.41;5055500;28;20049;-92
2023/01/13 05:18:55;;;;;;;18.73;11.63;;;;;;;3.20;100.00;99240.56;5104403;27;20382;-92
2023/01/13 05:27:20;;;;;;;19.63;12.18;;;;;;;3.09;100.00;99250.97;5091623;27;20366;-92
2023/01/13 05:29:46;;;;;;;20.10;12.95;;;;;;;3.06;100.00;99256.22;5090493;28;20079;-95
2023/01/13 05:32:12;;;;;;;19.65;12.50;;;;;;;3.11;100.00;99266.78;5089639;28;20071;-93
2023/01/13 05:34:38;;;;;;;16.98;11.70;;;;;;;3.01;100.00;99248.25;5090337;28;20059;-92
2023/01/13 05:37:06;;;;;;;21.13;12.98;;;;;;;3.01;100.00;99250.88;5090432;28;20113;-94
2023/01/13 05:43:18;;;;;;;22.50;12.80;;;;;;;3.03;100.00;99254.41;5090936;28;20501;-93
2023/01/13 05:45:35;;;;;;;20.83;12.55;;;;;;;3.00;100.00;99257.00;5106616;27;20366;-94
2023/01/13 05:48:01;;;;;;;21.45;13.32;;;;;;;3.05;100.00;99257.94;5095829;28;20504;-92
2023/01/13 05:50:27;;;;;;;27.35;15.95;;;;;;;3.00;100.00;99250.88;5098242;28;20048;-94
2023/01/13 05:52:53;;;;;;;25.58;15.52;;;;;;;3.03;100.00;99264.03;5092694;28;20032;-93
2023/01/13 05:55:19;;;;;;;24.40;14.77;;;;;;;3.07;100.00;99252.72;5096845;28;20071;-94
2023/01/13 05:57:44;;;;;;;21.33;13.63;;;;;;;2.94;100.00;99242.94;5095109;28;20119;-94
2023/01/13 06:00:11;;;;;;;28.98;15.20;;;;;;;2.94;100.00;99246.44;5094026;28;20056;-92
2023/01/13 06:02:38;;;;;;;25.67;14.57;;;;;;;2.98;100.00;99250.00;5094663;28;20138;-92
2023/01/13 06:05:05;;;;;;;22.30;13.20;;;;;;;3.09;100.00;99277.25;5091447;28;20036;-93
2023/01/13 06:07:31;;;;;;;24.88;14.85;;;;;;;2.91;100.00;99253.38;5099427;28;20497;-92
2023/01/13 06:09:56;;;;;;;25.98;14.93;;;;;;;2.85;100.00;99270.84;5089362;28;20047;-92
2023/01/13 06:12:22;;;;;;;25.27;14.55;;;;;;;2.90;100.00;99280.53;5092758;28;20366;-93
2023/01/13 06:14:48;;;;;;;26.50;14.63;;;;;;;2.78;100.00;99257.66;5090014;28;20040;-93
2023/01/13 06:17:15;;;;;;;22.40;13.93;;;;;;;2.80;100.00;99256.78;5091346;28;20123;-93
2023/01/13 06:19:42;;;;;;;25.25;14.05;;;;;;;2.77;100.00;99248.00;5094332;28;20504;-93
2023/01/13 06:22:14;;;;;;;23.30;13.43;;;;;;;2.74;100.00;99259.34;5085977;28;20032;-95
2023/01/13 06:24:40;;;;;;;23.17;13.73;;;;;;;2.91;100.00;99285.81;5097465;28;20507;-94
2023/01/13 06:27:09;;;;;;;28.05;14.98;;;;;;;2.72;100.00;99260.19;5098459;28;20072;-92
2023/01/13 06:29:35;;;;;;;22.60;14.70;;;;;;;2.85;100.00;99281.34;5092964;28;20493;-94
2023/01/13 06:32:04;;;;;;;28.75;15.30;;;;;;;2.88;100.00;99286.66;5092201;28;20268;-93
2023/01/13 06:34:31;;;;;;;21.50;14.43;;;;;;;2.91;100.00;99279.66;5088160;28;20036;-93
2023/01/13 06:36:58;;;;;;;22.95;13.93;;;;;;;2.88;100.00;99275.25;5095197;28;20040;-93
2023/01/13 06:39:29;;;;;;;19.25;12.77;;;;;;;2.73;100.00;99247.06;5091737;28;20037;-93
2023/01/13 06:44:57;;;;;;;20.77;12.70;;;;;;;2.99;100.00;99257.00;5107433;27;20381;-93
2023/01/13 06:47:23;;;;;;;24.05;13.45;;;;;;;2.75;100.00;99236.56;5100908;28;20040;-93
2023/01/13 06:49:49;;;;;;;21.50;12.73;;;;;;;2.85;100.00;99270.84;5092622;28;20066;-93
2023/01/13 06:52:15;;;;;;;22.15;12.90;;;;;;;2.71;100.00;99250.53;5102057;28;20047;-92
2023/01/13 06:54:41;;;;;;;20.30;12.32;;;;;;;2.82;100.00;99264.66;5094766;28;20056;-92
2023/01/13 06:57:07;;;;;;;20.42;12.95;;;;;;;2.90;100.00;99264.78;5090245;28;20378;-93
2023/01/13 06:59:34;;;;;;;22.95;12.88;;;;;;;2.88;100.00;99254.25;5097282;28;20043;-93
2023/01/13 07:02:01;;;;;;;20.83;13.27;;;;;;;2.96;100.00;99265.72;5092152;28;20040;-92
2023/01/13 07:04:27;;;;;;;32.92;17.05;;;;;;;3.03;100.00;99278.06;5094506;28;20059;-92
2023/01/13 07:06:54;;;;;;;35.95;18.55;;;;;;;2.97;100.00;99262.25;5092887;28;20060;-92
2023/01/13 07:09:19;;;;;;;32.75;17.52;;;;;;;2.98;100.00;99256.13;5098833;28;20118;-93
2023/01/13 07:11:45;;;;;;;30.10;18.75;;;;;;;3.11;100.00;99270.28;5099424;28;20058;-93
2023/01/13 07:17:11;;;;;;;32.78;19.95;;;;;;;3.17;100.00;99266.84;5132897;27;20371;-93
2023/01/13 07:19:37;;;;;;;35.78;23.67;;;;;;;3.07;100.00;99260.59;5132177;28;20511;-93
2023/01/13 07:22:03;;;;;;;38.47;23.25;;;;;;;3.21;100.00;99272.13;5132463;28;20043;-92
2023/01/13 07:24:28;;;;;;;35.10;21.35;;;;;;;3.22;100.00;99266.00;5132379;28;20126;-93
2023/01/13 07:26:54;;;;;;;34.67;21.02;;;;;;;3.24;100.00;99247.63;5132159;28;20055;-94
2023/01/13 07:29:20;;;;;;;28.15;18.25;;;;;;;3.40;100.00;99259.16;5132507;28;20059;-92
2023/01/13 07:31:46;;;;;;;32.33;20.13;;;;;;;3.30;100.00;99229.28;5129491;28;20042;-92
2023/01/13 07:34:14;;;;;;;41.85;21.70;;;;;;;3.53;100.00;99257.53;5132481;28;20507;-92
2023/01/13 07:36:40;;;;;;;37.83;20.95;;;;;;;3.62;100.00;99268.13;5131779;28;20028;-92
2023/01/13 07:39:06;;;;;;;39.03;20.17;;;;;;;3.61;100.00;99259.38;5131840;28;20189;-95
2023/01/13 07:44:39;;;;;;;36.22;20.27;;;;;;;3.94;100.00;99271.03;5111691;27;20376;-92
2023/01/13 07:47:07;;;;;;;35.50;20.27;;;;;;;3.93;100.00;99263.16;5110511;28;20046;-92
2023/01/13 07:49:33;;;;;;;32.63;19.85;;;;;;;3.94;100.00;99265.75;5111473;28;20047;-93
2023/01/13 07:51:58;;;;;;;33.05;19.75;;;;;;;4.02;100.00;99274.59;5110316;28;20040;-91
2023/01/13 07:54:24;;;;;;;32.70;19.35;;;;;;;4.12;100.00;99286.09;5110480;28;20035;-91
2023/01/13 07:56:50;;;;;;;27.25;18.05;;;;;;;4.15;100.00;99286.09;5111012;28;20392;-91
2023/01/13 07:59:16;;;;;;;33.05;19.25;;;;;;;4.14;100.00;99273.78;5109129;28;20135;-92
2023/01/13 08:01:43;;;;;;;35.75;20.38;;;;;;;4.19;100.00;99282.63;5111550;28;20069;-91
2023/01/13 08:04:09;;;;;;;36.22;19.88;;;;;;;4.19;100.00;99281.75;5110454;28;20039;-92
2023/01/13 08:06:35;;;;;;;35.38;20.08;;;;;;;4.24;100.00;99296.69;5110850;28;20044;-93
2023/01/13 08:09:01;;;;;;;32.33;18.45;;;;;;;4.16;100.00;99289.59;5110926;28;20093;-92
2023/01/13 08:11:27;;;;;;;30.30;18.80;;;;;;;4.21;100.00;99312.47;5110338;28;20101;-93
2023/01/13 08:13:55;;;;;;;27.95;17.48;;;;;;;4.24;100.00;99315.13;5110779;28;20039;-92
2023/01/13 08:16:20;;;;;;;29.23;18.75;;;;;;;4.25;100.00;99314.25;5107080;28;20548;-92
2023/01/13 08:18:47;;;;;;;33.80;18.48;;;;;;;4.22;100.00;99315.97;5110563;28;20126;-93
2023/01/13 08:21:14;;;;;;;34.53;19.27;;;;;;;4.27;100.00;99319.50;5110699;28;20047;-92
2023/01/13 08:23:41;;;;;;;36.60;21.73;;;;;;;4.33;100.00;99325.69;5110289;28;20067;-94
2023/01/13 08:26:09;;;;;;;35.85;20.92;;;;;;;4.44;100.00;99325.78;5110206;28;20052;-91
2023/01/13 08:28:35;;;;;;;35.42;20.35;;;;;;;4.47;100.00;99309.13;5109709;28;20148;-91
2023/01/13 08:31:02;;;;;;;36.83;20.95;;;;;;;4.52;100.00;99315.31;5108633;28;20515;-93
2023/01/13 08:33:28;;;;;;;35.05;20.73;;;;;;;4.62;100.00;99313.59;5110456;28;20044;-92
2023/01/13 08:35:56;;;;;;;32.40;19.50;;;;;;;4.66;100.00;99303.09;5109848;28;20089;-93
2023/01/13 08:38:23;;;;;;;29.50;18.17;;;;;;;4.80;100.00;99320.72;5110295;28;20520;-92
2023/01/13 08:40:51;;;;;;;27.45;17.02;;;;;;;4.79;100.00;99309.28;5109068;28;20396;-91
2023/01/13 08:43:16;;;;;;;26.30;18.00;;;;;;;4.99;100.00;99334.84;5107716;28;20051;-91
2023/01/13 08:45:42;;;;;;;31.85;18.95;;;;;;;4.96;100.00;99330.44;5108665;28;20043;-91
2023/01/13 08:51:09;;;;;;;30.38;18.45;;;;;;;5.26;100.00;99318.28;5141230;27;20379;-93
2023/01/13 08:53:35;;;;;;;33.97;18.52;;;;;;;5.47;100.00;99331.53;5143882;27;20073;-93
2023/01/13 08:56:00;;;;;;;28.80;17.98;;;;;;;5.48;100.00;99306.00;5144814;27;20063;-92
2023/01/13 08:58:26;;;;;;;26.88;18.27;;;;;;;5.65;100.00;99311.31;5144176;27;20047;-92
2023/01/13 09:00:52;;;;;;;31.55;19.13;;;;;;;5.65;100.00;99306.06;5141739;27;20039;-92
2023/01/13 09:03:18;;;;;;;26.27;16.15;;;;;;;5.70;100.00;99317.47;5146012;27;20035;-91
2023/01/13 09:05:44;;;;;;;26.65;15.88;;;;;;;5.88;100.00;99320.16;5139364;27;20039;-92
2023/01/13 09:08:11;;;;;;;24.92;14.63;;;;;;;6.11;100.00;99332.50;5141838;27;20040;-92
2023/01/13 09:10:39;;;;;;;23.67;15.63;;;;;;;6.05;96.91;99321.94;5143464;27;20031;-92
2023/01/13 09:13:12;;;;;;;24.35;15.50;;;;;;;6.17;98.00;99328.09;5140703;27;20143;-91
2023/01/13 09:15:38;;;;;;;23.50;15.45;;;;;;;6.24;96.62;99322.81;5141813;27;20069;-93
2023/01/13 09:18:04;;;;;;;23.48;15.13;;;;;;;6.30;95.88;99313.13;5144728;27;20039;-92
2023/01/13 09:20:30;;;;;;;24.00;15.25;;;;;;;6.33;95.48;99318.41;5139139;27;20039;-93
2023/01/13 09:22:56;;;;;;;21.75;14.10;;;;;;;6.48;95.47;99320.13;5138763;27;20035;-92
2023/01/13 09:25:23;;;;;;;27.42;15.30;;;;;;;6.45;94.25;99314.88;5147321;27;20057;-93
2023/01/13 09:27:49;;;;;;;22.55;14.48;;;;;;;6.62;92.88;99313.97;5143999;27;20108;-92
2023/01/13 09:30:16;;;;;;;24.63;14.55;;;;;;;6.90;94.16;99328.84;5140748;27;20122;-92
2023/01/13 09:32:41;;;;;;;20.80;14.85;;;;;;;7.03;92.50;99324.41;5144485;27;20046;-92
2023/01/13 09:35:08;;;;;;;24.08;15.13;;;;;;;7.03;93.25;99345.56;5143035;27;20127;-92
2023/01/13 09:37:36;;;;;;;23.40;15.43;;;;;;;7.01;92.51;99325.31;5142596;27;20043;-92
2023/01/13 09:40:04;;;;;;;20.17;14.52;;;;;;;7.08;92.32;99340.25;5143882;27;20039;-91
2023/01/13 09:45:49;;;;;;;23.05;16.25;;;;;;;6.86;91.39;99315.66;5103029;27;20376;-92
2023/01/13 09:48:21;;;;;;;23.02;15.57;;;;;;;6.88;92.55;99327.97;5070414;28;20084;-93
2023/01/13 09:50:57;;;;;;;25.40;15.55;;;;;;;6.92;91.67;99320.94;5069285;28;20132;-92
2023/01/13 09:53:28;;;;;;;25.55;15.65;;;;;;;7.10;88.78;99317.31;5069692;28;20049;-93
2023/01/13 09:55:54;;;;;;;25.60;16.00;;;;;;;7.22;89.86;99300.50;5070208;28;20037;-93
2023/01/13 09:58:20;;;;;;;27.23;16.83;;;;;;;7.41;89.10;99296.88;5070277;28;20048;-94
2023/01/13 10:00:59;;;;;;;27.88;17.35;;;;;;;7.42;89.33;99282.78;5069937;28;20390;-93
2023/01/13 10:03:26;;;;;;;;;;;;;;;7.61;88.87;99296.75;5070626;28;20490;-94
2023/01/13 10:06:03;;;;;;;23.65;16.77;;;;;;;7.56;89.20;99275.59;5068877;28;20006;-93
2023/01/13 10:08:32;;;;;;;24.90;17.98;;;;;;;7.77;88.76;99279.88;5069429;28;20052;-93
2023/01/13 10:10:59;;;;;;;28.77;19.60;;;;;;;7.84;86.82;99270.09;5069732;28;20033;-92
2023/01/13 10:13:27;;;;;;;25.50;18.40;;;;;;;7.88;86.91;99261.25;5068765;28;20044;-92
2023/01/13 10:16:26;;;;;;;23.25;15.82;;;;;;;8.05;85.16;99270.84;5066173;28;20101;-92
2023/01/13 10:19:03;;;;;;;24.17;14.43;;;;;;;8.08;84.77;99265.50;5069421;28;20139;-92
2023/01/13 10:21:47;;;;;;;21.92;14.00;;;;;;;8.10;84.54;99275.19;5079727;28;20067;-93
2023/01/13 10:24:26;;;;;;;22.85;14.45;;;;;;;8.05;83.14;99254.94;5068576;28;20032;-93
2023/01/13 10:27:00;;;;;;;18.27;13.88;;;;;;;7.96;83.76;99263.84;5068225;28;20119;-92
2023/01/13 10:29:27;;;;;;;20.73;14.45;;;;;;;7.88;84.34;99253.31;5067673;28;20067;-92
2023/01/13 10:31:56;;;;;;;20.95;13.75;;;;;;;7.93;84.88;99254.13;5067425;28;20037;-92
2023/01/13 10:34:26;;;;;;;19.15;13.55;;;;;;;7.82;81.92;99256.00;5068017;28;20489;-94
2023/01/13 10:40:00;;;;;;;23.23;14.75;;;;;;;7.70;84.48;99254.34;5142882;27;20389;-92
2023/01/13 10:42:26;;;;;;;22.23;14.93;;;;;;;7.74;84.99;99252.53;5103889;28;20083;-92
2023/01/13 10:44:54;;;;;;;20.17;13.93;;;;;;;7.81;84.29;99251.63;5106978;28;20071;-91
2023/01/13 10:47:25;;;;;;;19.63;12.07;;;;;;;7.84;82.06;99243.63;5103631;28;20426;-92
2023/01/13 10:50:18;;;;;;;21.05;13.00;;;;;;;7.81;81.71;99241.91;5101113;28;20047;-93
2023/01/13 10:52:56;;;;;;;25.42;15.05;;;;;;;7.61;84.99;99234.13;5106300;28;20040;-92
2023/01/13 10:55:28;;;;;;;23.33;15.90;;;;;;;7.64;85.84;99229.69;5106771;28;20067;-91
2023/01/13 10:57:55;;;;;;;25.08;17.45;;;;;;;7.64;86.27;99217.34;5102390;28;20055;-92
2023/01/13 11:00:30;;;;;;;26.65;16.73;;;;;;;7.66;86.24;99219.97;5141353;27;20043;-92
2023/01/13 11:03:13;;;;;;;31.30;18.73;;;;;;;7.60;86.90;99202.38;5106397;28;20051;-91
2023/01/13 11:05:39;;;;;;;32.50;18.95;;;;;;;7.57;88.40;99213.84;5106187;28;20051;-93
2023/01/13 11:08:15;;;;;;;29.17;18.30;;;;;;;7.66;89.23;99207.63;5109785;28;20040;-92
2023/01/13 11:10:47;;;;;;;29.35;19.80;;;;;;;7.69;90.00;99196.97;5108528;28;20047;-92
2023/01/13 11:13:17;;;;;;;37.08;18.73;;;;;;;7.68;89.36;99187.31;5102578;28;20119;-91
2023/01/13 11:15:53;;;;;;;29.75;18.85;;;;;;;7.64;89.59;99192.63;5102346;28;20036;-91
2023/01/13 11:18:27;;;;;;;26.58;18.08;;;;;;;7.57;90.33;99197.97;5109995;28;20060;-92
2023/01/13 11:20:56;;;;;;;25.80;18.45;;;;;;;7.46;90.27;99169.81;5110072;28;20046;-91
2023/01/13 11:23:29;;;;;;;27.90;17.27;;;;;;;7.58;90.19;99167.97;5108584;28;20139;-92
2023/01/13 11:26:02;;;;;;;24.83;16.80;;;;;;;7.74;89.34;99170.47;5110806;28;20051;-92
2023/01/13 11:28:37;;;;;;;25.45;15.77;;;;;;;7.85;88.99;99176.56;5103569;28;20044;-93
2023/01/13 11:31:10;;;;;;;23.42;16.58;;;;;;;7.92;89.16;99175.59;5107043;28;20039;-92
2023/01/13 11:33:42;;;;;;;24.70;17.05;;;;;;;8.08;89.44;99170.16;5107492;28;20134;-92
2023/01/13 11:36:12;;;;;;;26.13;17.40;;;;;;;8.12;88.06;99143.59;5108363;28;20511;-92
2023/01/13 11:38:44;;;;;;;25.05;15.88;;;;;;;8.23;88.40;99151.44;5109752;28;20481;-92
2023/01/13 11:41:22;;;;;;;27.45;16.38;;;;;;;8.28;87.03;99148.72;5113131;28;20064;-93
2023/01/13 11:43:52;;;;;;;24.60;17.02;;;;;;;8.26;87.30;99145.22;5104609;28;20050;-92
2023/01/13 11:46:20;;;;;;;24.90;16.38;;;;;;;8.35;87.62;99155.69;5105833;28;20554;-92
2023/01/13 11:48:46;;;;;;;26.17;16.30;;;;;;;8.49;87.37;99143.19;5100162;28;20054;-93
2023/01/13 11:51:24;;;;;;;24.35;15.40;;;;;;;8.63;86.07;99137.69;5103525;28;20293;-92
2023/01/13 11:54:09;;;;;;;21.97;15.27;;;;;;;8.84;85.58;99131.25;5095942;28;20555;-93
2023/01/13 11:56:54;;;;;;;18.88;14.02;;;;;;;9.00;84.13;99122.19;5088925;28;20031;-93
2023/01/13 11:59:49;;;;;;;19.83;14.02;;;;;;;9.25;80.90;99130.59;5091144;28;20046;-92
2023/01/13 12:02:26;;;;;;;20.52;14.40;;;;;;;9.34;80.01;99118.09;5099772;28;20043;-93
2023/01/13 12:05:03;;;;;;;21.25;14.00;;;;;;;9.43;79.81;99123.25;5094386;28;20036;-92
2023/01/13 12:07:40;;;;;;;22.73;14.25;;;;;;;9.42;78.09;99126.81;5090355;28;20073;-92
2023/01/13 12:10:11;;;;;;;18.92;13.40;;;;;;;9.46;79.29;99129.41;5090735;28;20043;-93
2023/01/13 12:12:47;;;;;;;20.75;14.32;;;;;;;9.49;80.93;99125.81;5096997;28;20036;-93
2023/01/13 12:15:44;;;;;;;21.40;13.50;;;;;;;9.46;80.64;99117.91;5094761;28;20094;-92
2023/01/13 12:18:33;;;;;;;22.45;13.60;;;;;;;9.45;80.58;99113.47;5088261;28;20056;-92
2023/01/13 12:21:12;;;;;;;19.92;13.63;;;;;;;9.34;81.19;99100.38;5096103;28;20047;-93